Airfield :
LOGIN :

Register | Disclaimer

   EN    FR    IT 

 










Legend :    VFR   Marginal VFR   IFR   Intensive IFR   Very Intensive IFR
Visi :
Ceiling :
>= 8 km
>= 3000ft
5 to 8 km
1000 to 3000 ft
1500m to 5 km
500 to 1000 ft
800 to 1500m
200 to 500 ft
< 800m
< 200 ft
Symbols :   Thunderstorms  Fog  Heavy snow  Heavy precipitations  Wind > 20 kt
SIGMETs :     Misc.  Thunderstorms  Icing  Turbulence  Mountain Waves  Volcanic Ashes






- Airport Elevation : 22 ft
- IATA code : TUN


DTTA - Tunis Carthage

CURRENT METAR :
  • 272100Z 03003KT 360V060 8000 FEW023 13/11 Q1023

EXPIRED METARs :
  • 272030Z VRB02KT 8000 SCT023 13/11 Q1023
  • 272000Z VRB02KT 8000 SCT023 13/11 Q1023
  • 271930Z 03004KT 360V060 8000 SCT023 13/11 Q1023
  • 271900Z 01002KT 8000 FEW023 13/11 Q1023
  • 271830Z VRB02KT 8000 FEW023 12/10 Q1023

TAF TAF DTTA
Valid from the 27 at 18:00 until the 28 at 18:00 UTC


271700Z 2718/2818 02005KT 9999 SCT023
TEMPO 2803/2806 3000 BR
PROB40
TEMPO 2806/2809 0800 FG BKN008
BECMG 2815/2817 09012KT



MET'MAP, your aeronautical weather chart ! - Copyright ORBIFLY December 2007 - Disclaimer

ORBIFLY MET'MAP TEAM :

Programming & Development : Alexandra Zaïnal
Concept & original design : Baudouin d'Aumeries
Assistance for programming : Marc-Olivier Méhu
Technical & hardware support : Manuel Goepfert

Contact : metmap@orbifly.com




SOURCES & CREDITS :

   NOAA